Time,TemperatureF,DewpointF,PressureIn,WindDirection,WindDirectionDegrees,WindSpeedMPH,WindSpeedGustMPH,Humidity,HourlyPrecipIn,Conditions,Clouds,dailyrainin,SoftwareType,DateUTC
2013-05-10 00:00:00,59.4,56.1,29.99,South,180,0.0,0.0,89,0.00,CLR,,0.00,WeatherDisplay:10.37,2013-05-10 04:00:00,
2013-05-10 00:15:00,59.2,55.9,29.99,SW,230,0.0,0.0,89,0.00,CLR,,0.00,WeatherDisplay:10.37,2013-05-10 04:15:00,
2013-05-10 00:30:00,59.0,56.1,29.99,West,281,0.0,0.0,90,0.00,CLR,,0.00,WeatherDisplay:10.37,2013-05-10 04:30:00,
2013-05-10 00:45:00,58.6,56.0,29.99,WNW,288,0.0,0.0,91,0.00,CLR,,0.00,WeatherDisplay:10.37,2013-05-10 04:45:00,
2013-05-10 01:00:00,58.6,56.3,29.99,WSW,253,0.0,0.0,92,0.00,CLR,,0.00,WeatherDisplay:10.37,2013-05-10 05:00:00,
2013-05-10 01:15:00,58.3,56.0,29.99,NW,323,0.0,0.0,92,0.00,CLR,,0.00,WeatherDisplay:10.37,2013-05-10 05:15:00,
2013-05-10 01:30:00,57.7,55.7,29.99,SW,225,0.0,0.0,93,0.00,CLR,,0.00,WeatherDisplay:10.37,2013-05-10 05:30:00,
2013-05-10 01:45:00,57.4,55.4,29.99,SW,225,0.0,0.0,93,0.00,CLR,,0.00,WeatherDisplay:10.37,2013-05-10 05:45:00,
2013-05-10 02:00:00,57.2,55.5,29.99,SW,225,0.0,0.0,94,0.00,CLR,,0.00,WeatherDisplay:10.37,2013-05-10 06:00:00,
2013-05-10 02:15:00,57.0,55.9,29.99,SW,227,0.0,0.0,96,0.00,CLR,,0.00,WeatherDisplay:10.37,2013-05-10 06:15:00,
2013-05-10 02:30:00,57.0,56.2,29.99,North,355,0.0,0.0,97,0.00,CLR,,0.00,WeatherDisplay:10.37,2013-05-10 06:30:00,
2013-05-10 02:45:00,56.8,56.3,29.99,WNW,290,0.0,0.0,98,0.00,CLR,,0.00,WeatherDisplay:10.37,2013-05-10 06:45:00,
2013-05-10 03:00:00,57.0,57.0,29.99,WNW,282,0.0,0.0,100,0.00,CLR,,0.00,WeatherDisplay:10.37,2013-05-10 07:00:00,
2013-05-10 03:15:00,57.4,57.4,29.99,WSW,244,0.0,0.0,100,0.00,CLR,,0.00,WeatherDisplay:10.37,2013-05-10 07:15:00,
2013-05-10 03:30:00,58.1,58.1,29.99,NW,308,0.0,0.0,100,0.00,CLR,,0.00,WeatherDisplay:10.37,2013-05-10 07:30:00,
2013-05-10 03:45:00,58.3,58.3,29.99,West,263,0.0,0.0,100,0.00,CLR,,0.00,WeatherDisplay:10.37,2013-05-10 07:45:00,
2013-05-10 04:00:00,59.2,59.2,29.99,WNW,299,0.0,2.0,100,0.00,CLR,,0.00,WeatherDisplay:10.37,2013-05-10 08:00:00,
2013-05-10 04:15:00,58.6,58.6,29.99,NW,315,0.0,0.0,100,0.00,CLR,,0.00,WeatherDisplay:10.37,2013-05-10 08:15:00,
2013-05-10 04:30:00,58.1,58.1,29.99,West,275,0.0,0.0,100,0.00,CLR,,0.00,WeatherDisplay:10.37,2013-05-10 08:30:00,
2013-05-10 04:45:00,57.6,57.6,29.99,WSW,240,0.0,0.0,100,0.00,CLR,,0.00,WeatherDisplay:10.37,2013-05-10 08:45:00,
2013-05-10 05:00:00,57.4,57.4,29.99,WSW,250,0.0,0.0,100,0.00,CLR,,0.00,WeatherDisplay:10.37,2013-05-10 09:00:00,
2013-05-10 05:15:00,57.2,57.2,29.99,WSW,250,0.0,0.0,100,0.00,CLR,,0.00,WeatherDisplay:10.37,2013-05-10 09:15:00,
2013-05-10 05:30:00,56.3,56.3,29.99,WSW,250,0.0,0.0,100,0.00,CLR,,0.00,WeatherDisplay:10.37,2013-05-10 09:30:00,
2013-05-10 05:45:00,56.1,56.1,30.01,WSW,250,0.0,0.0,100,0.00,CLR,,0.00,WeatherDisplay:10.37,2013-05-10 09:45:00,
2013-05-10 06:00:00,55.9,55.9,30.01,WSW,250,0.0,0.0,100,0.00,CLR,,0.00,WeatherDisplay:10.37,2013-05-10 10:00:00,
2013-05-10 06:15:00,55.9,55.9,30.01,WSW,250,0.0,0.0,100,0.00,CLR,,0.00,WeatherDisplay:10.37,2013-05-10 10:15:00,
2013-05-10 06:30:00,56.1,56.1,30.01,WSW,250,0.0,0.0,100,0.00,CLR,,0.00,WeatherDisplay:10.37,2013-05-10 10:30:00,
2013-05-10 06:45:00,57.4,57.4,30.01,WSW,250,0.0,0.0,100,0.00,CLR,,0.00,WeatherDisplay:10.37,2013-05-10 10:45:00,
2013-05-10 07:00:00,59.0,59.0,30.01,WSW,250,0.0,0.0,100,0.00,CLR,,0.00,WeatherDisplay:10.37,2013-05-10 11:00:00,
2013-05-10 07:15:00,60.6,60.6,30.01,WSW,250,0.0,0.0,100,0.00,CLR,,0.00,WeatherDisplay:10.37,2013-05-10 11:15:00,
2013-05-10 07:30:00,72.3,71.1,30.01,WSW,250,0.0,0.0,96,0.00,CLR,,0.00,WeatherDisplay:10.37,2013-05-10 11:30:00,
2013-05-10 07:45:00,80.4,59.5,30.01,WSW,250,0.0,0.0,49,0.00,CLR,,0.00,WeatherDisplay:10.37,2013-05-10 11:45:00,
2013-05-10 08:00:00,73.6,56.4,30.01,WSW,250,0.0,0.0,55,0.00,CLR,,0.00,WeatherDisplay:10.37,2013-05-10 12:00:00,
2013-05-10 08:15:00,71.6,56.5,30.01,NNW,335,0.0,0.0,59,0.00,CLR,,0.00,WeatherDisplay:10.37,2013-05-10 12:15:00,
2013-05-10 08:30:00,71.6,56.0,30.01,NNW,339,0.0,0.0,58,0.00,CLR,,0.00,WeatherDisplay:10.37,2013-05-10 12:30:00,
2013-05-10 08:45:00,71.6,55.6,30.01,North,358,0.0,2.0,57,0.00,CLR,,0.00,WeatherDisplay:10.37,2013-05-10 12:45:00,
2013-05-10 09:00:00,73.6,57.4,30.01,NNW,334,0.0,0.0,57,0.00,CLR,,0.00,WeatherDisplay:10.37,2013-05-10 13:00:00,
2013-05-10 09:15:00,74.1,56.9,30.01,SE,129,1.0,4.0,55,0.00,CLR,,0.00,WeatherDisplay:10.37,2013-05-10 13:15:00,
2013-05-10 09:30:00,73.9,55.7,30.01,NE,44,3.0,5.0,53,0.00,CLR,,0.00,WeatherDisplay:10.37,2013-05-10 13:30:00,
2013-05-10 09:45:00,73.8,56.1,30.01,NNE,29,2.0,5.0,54,0.00,CLR,,0.00,WeatherDisplay:10.37,2013-05-10 13:45:00,
2013-05-10 10:00:00,73.8,56.6,30.01,West,270,1.0,3.0,55,0.00,CLR,,0.00,WeatherDisplay:10.37,2013-05-10 14:00:00,
2013-05-10 10:15:00,73.6,57.4,30.01,SW,215,2.0,6.0,57,0.00,CLR,,0.00,WeatherDisplay:10.37,2013-05-10 14:15:00,
2013-05-10 10:30:00,75.2,58.4,30.01,West,276,3.0,5.0,56,0.00,CLR,,0.00,WeatherDisplay:10.37,2013-05-10 14:30:00,
2013-05-10 10:45:00,77.0,58.0,30.01,WSW,245,2.0,4.0,52,0.00,CLR,,0.00,WeatherDisplay:10.37,2013-05-10 14:45:00,
2013-05-10 11:00:00,79.2,58.9,30.01,WNW,295,2.0,3.0,50,0.00,CLR,,0.00,WeatherDisplay:10.37,2013-05-10 15:00:00,
2013-05-10 11:15:00,80.1,59.2,30.01,WNW,298,2.0,6.0,49,0.00,CLR,,0.00,WeatherDisplay:10.37,2013-05-10 15:15:00,
2013-05-10 11:30:00,80.4,58.9,30.01,West,273,3.0,5.0,48,0.00,CLR,,0.00,WeatherDisplay:10.37,2013-05-10 15:30:00,
2013-05-10 11:45:00,81.9,59.1,30.01,SSE,148,3.0,6.0,46,0.00,CLR,,0.00,WeatherDisplay:10.37,2013-05-10 15:45:00,
2013-05-10 12:00:00,81.5,57.5,30.01,SE,125,6.0,7.0,44,0.00,CLR,,0.00,WeatherDisplay:10.37,2013-05-10 16:00:00,
2013-05-10 12:15:00,81.5,59.9,30.01,ESE,108,8.0,10.0,48,0.00,CLR,,0.00,WeatherDisplay:10.37,2013-05-10 16:15:00,
2013-05-10 12:30:00,81.5,58.7,30.01,South,185,6.0,7.0,46,0.00,CLR,,0.00,WeatherDisplay:10.37,2013-05-10 16:30:00,
2013-05-10 12:45:00,81.0,57.0,30.01,SE,139,7.0,8.0,44,0.00,CLR,,0.00,WeatherDisplay:10.37,2013-05-10 16:45:00,
2013-05-10 13:00:00,79.7,57.7,29.99,SE,136,7.0,8.0,47,0.00,CLR,,0.00,WeatherDisplay:10.37,2013-05-10 17:00:00,
2013-05-10 13:15:00,79.7,57.1,29.99,SSW,202,7.0,8.0,46,0.00,CLR,,0.00,WeatherDisplay:10.37,2013-05-10 17:15:00,
2013-05-10 13:30:00,79.7,57.7,29.99,ESE,120,7.0,9.0,47,0.00,CLR,,0.00,WeatherDisplay:10.37,2013-05-10 17:30:00,
2013-05-10 14:00:00,79.3,57.9,29.99,SE,131,7.0,9.0,48,0.00,CLR,,0.00,WeatherDisplay:10.37,2013-05-10 18:00:00,
2013-05-10 14:15:00,79.7,57.1,29.99,SE,145,6.0,8.0,46,0.00,CLR,,0.00,WeatherDisplay:10.37,2013-05-10 18:15:00,
2013-05-10 14:30:00,79.5,56.9,29.99,ESE,112,7.0,10.0,46,0.00,CLR,,0.00,WeatherDisplay:10.37,2013-05-10 18:30:00,
2013-05-10 14:45:00,78.6,56.1,29.99,ESE,104,9.0,10.0,46,0.00,CLR,,0.00,WeatherDisplay:10.37,2013-05-10 18:45:00,
2013-05-10 15:00:00,78.4,55.9,29.99,SE,128,9.0,10.0,46,0.00,CLR,,0.00,WeatherDisplay:10.37,2013-05-10 19:00:00,
2013-05-10 15:15:00,78.8,56.9,29.99,ESE,106,9.0,12.0,47,0.00,CLR,,0.00,WeatherDisplay:10.37,2013-05-10 19:15:00,
2013-05-10 15:30:00,79.7,56.5,29.95,South,182,7.0,9.0,45,0.00,CLR,,0.00,WeatherDisplay:10.37,2013-05-10 19:30:00,
2013-05-10 15:45:00,77.7,56.5,29.95,SSE,157,9.0,13.0,48,0.00,CLR,,0.00,WeatherDisplay:10.37,2013-05-10 19:45:00,
2013-05-10 16:00:00,78.4,57.1,29.95,SSE,154,9.0,10.0,48,0.00,CLR,,0.00,WeatherDisplay:10.37,2013-05-10 20:00:00,
2013-05-10 16:15:00,77.5,56.3,29.95,ESE,114,7.0,10.0,48,0.00,CLR,,0.00,WeatherDisplay:10.37,2013-05-10 20:15:00,
2013-05-10 16:30:00,78.1,55.6,29.95,ESE,110,7.0,12.0,46,0.00,CLR,,0.00,WeatherDisplay:10.37,2013-05-10 20:30:00,
2013-05-10 16:45:00,75.4,54.9,29.95,ESE,121,8.0,12.0,49,0.00,CLR,,0.00,WeatherDisplay:10.37,2013-05-10 20:45:00,
2013-05-10 17:00:00,76.1,56.1,29.95,SE,130,7.0,10.0,50,0.00,CLR,,0.00,WeatherDisplay:10.37,2013-05-10 21:00:00,
2013-05-10 17:15:00,78.4,56.5,29.95,SE,129,7.0,11.0,47,0.00,CLR,,0.00,WeatherDisplay:10.37,2013-05-10 21:15:00,
2013-05-10 17:30:00,75.9,55.4,29.95,SE,142,9.0,12.0,49,0.00,CLR,,0.00,WeatherDisplay:10.37,2013-05-10 21:30:00,
2013-05-10 17:45:00,75.0,55.7,29.95,SSE,153,9.0,10.0,51,0.00,CLR,,0.00,WeatherDisplay:10.37,2013-05-10 21:45:00,
2013-05-10 18:00:00,74.1,55.4,29.95,ESE,108,7.0,8.0,52,0.00,CLR,,0.00,WeatherDisplay:10.37,2013-05-10 22:00:00,
2013-05-10 18:15:00,72.5,55.4,29.95,SE,146,7.0,12.0,55,0.00,CLR,,0.00,WeatherDisplay:10.37,2013-05-10 22:15:00,
2013-05-10 18:30:00,72.7,55.6,29.93,SE,131,9.0,12.0,55,0.00,CLR,,0.00,WeatherDisplay:10.37,2013-05-10 22:30:00,
2013-05-10 18:45:00,70.5,55.5,29.93,SE,137,9.0,11.0,59,0.00,CLR,,0.00,WeatherDisplay:10.37,2013-05-10 22:45:00,
2013-05-10 19:00:00,68.9,54.9,29.93,SE,132,9.0,13.0,61,0.00,CLR,,0.00,WeatherDisplay:10.37,2013-05-10 23:00:00,
2013-05-10 19:15:00,67.8,54.3,29.93,SSE,166,8.0,8.0,62,0.00,CLR,,0.00,WeatherDisplay:10.37,2013-05-10 23:15:00,
2013-05-10 19:30:00,67.5,54.0,29.93,SE,130,6.0,6.0,62,0.00,CLR,,0.00,WeatherDisplay:10.37,2013-05-10 23:30:00,
2013-05-10 19:45:00,67.1,54.1,29.93,SSE,149,6.0,8.0,63,0.00,CLR,,0.00,WeatherDisplay:10.37,2013-05-10 23:45:00,
2013-05-10 20:00:00,66.4,54.3,29.93,SE,137,5.0,7.0,65,0.00,CLR,,0.00,WeatherDisplay:10.37,2013-05-11 00:00:00,
2013-05-10 20:15:00,65.8,54.6,29.93,SE,140,6.0,10.0,67,0.00,CLR,,0.00,WeatherDisplay:10.37,2013-05-11 00:15:00,
2013-05-10 20:30:00,65.3,54.9,29.93,SE,127,5.0,7.0,69,0.00,CLR,,0.00,WeatherDisplay:10.37,2013-05-11 00:30:00,
2013-05-10 20:45:00,64.8,55.1,29.93,SE,125,3.0,5.0,71,0.00,CLR,,0.00,WeatherDisplay:10.37,2013-05-11 00:45:00,
2013-05-10 21:00:00,64.6,55.3,29.93,SSE,148,3.0,6.0,72,0.00,CLR,,0.00,WeatherDisplay:10.37,2013-05-11 01:00:00,
2013-05-10 21:15:00,64.6,55.3,29.93,SE,143,3.0,8.0,72,0.00,CLR,,0.00,WeatherDisplay:10.37,2013-05-11 01:15:00,
2013-05-10 21:30:00,64.4,54.4,29.93,SE,137,3.0,8.0,70,0.00,CLR,,0.00,WeatherDisplay:10.37,2013-05-11 01:30:00,
2013-05-10 21:45:00,64.9,53.3,29.93,SE,144,3.0,5.0,66,0.00,CLR,,0.00,WeatherDisplay:10.37,2013-05-11 01:45:00,
2013-05-10 22:00:00,64.6,53.0,29.93,SE,125,3.0,6.0,66,0.00,CLR,,0.00,WeatherDisplay:10.37,2013-05-11 02:00:00,
2013-05-10 22:15:00,64.4,53.2,29.93,SE,135,2.0,3.0,67,0.00,CLR,,0.00,WeatherDisplay:10.37,2013-05-11 02:15:00,
2013-05-10 22:30:00,63.9,53.5,29.93,SE,130,1.0,3.0,69,0.00,CLR,,0.00,WeatherDisplay:10.37,2013-05-11 02:30:00,
2013-05-10 22:45:00,63.9,53.5,29.93,SE,144,1.0,5.0,69,0.00,CLR,,0.00,WeatherDisplay:10.37,2013-05-11 02:45:00,
2013-05-10 23:00:00,63.7,53.3,29.93,SSE,157,5.0,8.0,69,0.00,CLR,,0.00,WeatherDisplay:10.37,2013-05-11 03:00:00,
2013-05-10 23:30:00,64.2,54.2,29.90,ESE,108,2.0,5.0,70,0.00,CLR,,0.00,WeatherDisplay:10.37,2013-05-11 03:30:00,
2013-05-10 23:45:00,64.6,54.2,29.90,SE,132,3.0,9.0,69,0.00,CLR,,0.00,WeatherDisplay:10.37,2013-05-11 03:45:00,